Time;durP1;ratioP1;P1;durP2;ratioP2;P2;SDS_P1;SDS_P2;PMS_P1;PMS_P2;Temp;Humidity;BMP_temperature;BMP_pressure;BME280_temperature;BME280_humidity;BME280_pressure;Samples;Min_cycle;Max_cycle;Signal;HPM_P1;HPM_P2
2020/12/26 00:01:20;;;;;;;9.82;2.03;;;20.20;97.60;;;;;;5069149;28;20381;-81
2020/12/26 00:03:48;;;;;;;6.17;1.90;;;20.20;96.00;;;;;;5062173;28;20888;-81
2020/12/26 00:06:20;;;;;;;6.75;1.67;;;20.20;95.00;;;;;;5048905;28;20398;-81
2020/12/26 00:08:48;;;;;;;10.48;2.22;;;20.20;95.10;;;;;;5068305;28;20390;-83
2020/12/26 00:11:17;;;;;;;7.15;1.45;;;20.40;94.10;;;;;;5061338;28;20810;-82
2020/12/26 00:13:45;;;;;;;7.03;1.58;;;20.50;93.20;;;;;;5080168;28;20709;-84
2020/12/26 00:16:13;;;;;;;10.00;1.75;;;20.40;93.30;;;;;;5081614;28;20428;-82
2020/12/26 00:18:42;;;;;;;7.78;1.38;;;20.40;94.60;;;;;;5069412;28;20416;-83
2020/12/26 00:21:11;;;;;;;5.43;1.45;;;20.40;93.90;;;;;;5066301;28;20420;-83
2020/12/26 00:23:39;;;;;;;6.63;1.67;;;20.50;94.70;;;;;;5061223;28;20417;-82
2020/12/26 00:26:06;;;;;;;7.45;1.60;;;21.00;94.80;;;;;;5065436;28;20382;-82
2020/12/26 00:28:33;;;;;;;6.70;1.87;;;21.30;92.70;;;;;;5068963;28;20399;-83
2020/12/26 00:31:01;;;;;;;7.80;1.58;;;21.80;91.90;;;;;;5089259;28;20419;-84
2020/12/26 00:33:30;;;;;;;7.68;1.55;;;21.90;90.30;;;;;;5070743;28;20413;-83
2020/12/26 00:35:58;;;;;;;8.32;1.42;;;22.00;91.30;;;;;;5068863;28;20362;-82
2020/12/26 00:38:25;;;;;;;7.25;1.42;;;22.30;89.10;;;;;;5064098;28;20384;-83
2020/12/26 00:40:51;;;;;;;7.50;1.40;;;22.60;88.00;;;;;;5048988;28;20482;-83
2020/12/26 00:43:18;;;;;;;8.88;1.75;;;22.80;85.30;;;;;;5050199;28;20411;-84
2020/12/26 00:45:46;;;;;;;6.40;1.30;;;22.20;89.60;;;;;;5064171;28;20515;-83
2020/12/26 00:48:13;;;;;;;5.07;1.30;;;21.90;90.40;;;;;;5061800;28;20389;-83
2020/12/26 00:50:40;;;;;;;8.52;1.58;;;21.70;90.20;;;;;;5061812;28;20394;-82
2020/12/26 00:53:07;;;;;;;6.13;1.27;;;21.80;91.30;;;;;;5067777;28;20389;-82
2020/12/26 00:55:37;;;;;;;9.15;1.50;;;21.90;88.90;;;;;;5066418;28;20416;-83
2020/12/26 00:58:04;;;;;;;7.40;0.82;;;21.90;88.20;;;;;;5066846;28;20754;-82
2020/12/26 01:00:31;;;;;;;5.60;1.20;;;21.80;88.70;;;;;;5067710;28;20430;-82
2020/12/26 01:02:57;;;;;;;6.32;1.23;;;21.80;90.00;;;;;;5067257;28;20485;-83
2020/12/26 01:05:24;;;;;;;6.30;1.40;;;22.00;90.00;;;;;;5067235;28;20398;-82
2020/12/26 01:07:51;;;;;;;4.88;1.10;;;22.20;90.50;;;;;;5066747;28;20543;-83
2020/12/26 01:10:18;;;;;;;5.22;1.20;;;22.40;84.50;;;;;;5065405;28;20398;-82
2020/12/26 01:12:45;;;;;;;5.65;1.40;;;22.60;85.20;;;;;;5068135;28;20745;-84
2020/12/26 01:15:12;;;;;;;9.95;1.48;;;22.50;82.40;;;;;;5067760;28;20381;-81
2020/12/26 01:17:39;;;;;;;7.20;1.58;;;22.30;80.10;;;;;;5066253;28;20444;-82
2020/12/26 01:20:06;;;;;;;6.93;1.33;;;22.30;84.30;;;;;;5061536;28;20473;-81
2020/12/26 01:22:37;;;;;;;4.60;1.65;;;22.40;81.10;;;;;;5060450;28;20389;-82
2020/12/26 01:25:07;;;;;;;4.93;1.10;;;22.40;83.50;;;;;;5066564;28;20417;-83
2020/12/26 01:27:35;;;;;;;7.70;1.40;;;22.40;81.70;;;;;;5062559;28;20398;-84
2020/12/26 01:30:03;;;;;;;4.32;1.23;;;22.40;82.50;;;;;;5067494;28;20929;-83
2020/12/26 01:32:31;;;;;;;5.97;1.33;;;22.20;83.10;;;;;;5071165;28;20416;-82
2020/12/26 01:34:59;;;;;;;5.10;1.13;;;22.00;80.70;;;;;;5072464;28;20807;-82
2020/12/26 01:37:27;;;;;;;7.38;1.38;;;21.90;84.30;;;;;;5072313;28;20496;-83
2020/12/26 01:39:54;;;;;;;6.57;1.40;;;21.70;81.50;;;;;;5071610;28;20761;-83
2020/12/26 01:42:21;;;;;;;6.53;1.65;;;21.50;83.10;;;;;;5072241;28;20507;-82
2020/12/26 01:44:48;;;;;;;7.97;2.05;;;21.40;83.10;;;;;;5070067;28;20393;-82
2020/12/26 01:47:16;;;;;;;7.72;1.50;;;21.30;84.80;;;;;;5066037;28;20438;-83
2020/12/26 01:49:44;;;;;;;8.32;1.77;;;21.30;84.80;;;;;;5070283;28;20825;-83
2020/12/26 01:52:14;;;;;;;6.30;1.98;;;21.30;85.60;;;;;;5052247;28;20451;-82
2020/12/26 01:54:41;;;;;;;9.85;2.40;;;21.10;85.90;;;;;;5071448;28;20370;-82
2020/12/26 01:57:09;;;;;;;7.50;1.92;;;21.10;86.70;;;;;;5072888;28;20398;-81
2020/12/26 01:59:36;;;;;;;9.05;1.75;;;21.10;87.10;;;;;;5071706;28;20382;-82
2020/12/26 02:02:08;;;;;;;8.30;1.90;;;21.20;87.90;;;;;;5067798;28;21370;-83
2020/12/26 02:04:35;;;;;;;6.72;1.80;;;21.40;86.80;;;;;;5057204;28;20847;-82
2020/12/26 02:07:07;;;;;;;7.38;1.90;;;21.50;87.30;;;;;;5071232;28;20733;-82
2020/12/26 02:09:35;;;;;;;7.72;2.17;;;21.50;88.80;;;;;;5070211;28;20393;-82
2020/12/26 02:12:02;;;;;;;8.43;2.05;;;21.50;87.70;;;;;;5069648;28;20485;-82
2020/12/26 02:14:29;;;;;;;5.57;1.65;;;21.50;89.00;;;;;;5071570;28;20854;-82
2020/12/26 02:16:56;;;;;;;8.75;1.67;;;21.50;88.60;;;;;;5071597;28;20896;-82
2020/12/26 02:19:26;;;;;;;8.32;1.60;;;21.40;89.90;;;;;;5072428;28;20375;-82
2020/12/26 02:21:53;;;;;;;11.35;2.15;;;21.30;89.90;;;;;;5070454;28;20402;-82
2020/12/26 02:24:20;;;;;;;5.90;1.42;;;21.20;90.60;;;;;;5066908;28;20402;-82
2020/12/26 02:26:48;;;;;;;8.52;1.85;;;21.30;90.10;;;;;;5072416;28;20788;-83
2020/12/26 02:29:15;;;;;;;8.32;1.80;;;21.30;90.30;;;;;;5071361;28;20385;-81
2020/12/26 02:31:42;;;;;;;6.32;1.52;;;21.30;90.60;;;;;;5070663;28;20397;-82
2020/12/26 02:34:09;;;;;;;5.03;1.47;;;21.20;89.90;;;;;;5070646;28;20429;-82
2020/12/26 02:36:37;;;;;;;8.83;1.90;;;21.10;90.40;;;;;;5071043;28;20484;-83
2020/12/26 02:39:07;;;;;;;8.80;1.77;;;21.10;90.30;;;;;;5069642;28;20406;-82
2020/12/26 02:41:35;;;;;;;4.45;1.17;;;21.00;90.20;;;;;;5070483;28;20401;-83
2020/12/26 02:44:01;;;;;;;8.93;2.13;;;21.00;89.50;;;;;;5068350;28;20406;-82
2020/12/26 02:46:28;;;;;;;8.52;1.88;;;21.10;90.30;;;;;;5071387;28;20386;-82
2020/12/26 02:48:56;;;;;;;7.03;1.58;;;21.30;88.30;;;;;;5052849;28;20379;-81
2020/12/26 02:51:23;;;;;;;7.80;1.55;;;21.50;88.40;;;;;;5070744;28;20362;-82
2020/12/26 02:53:50;;;;;;;9.93;2.80;;;21.90;88.40;;;;;;5070902;28;20381;-82
2020/12/26 02:56:21;;;;;;;7.93;1.52;;;22.00;86.90;;;;;;5070688;28;20469;-81
2020/12/26 02:58:48;;;;;;;8.40;1.30;;;22.20;87.10;;;;;;5070835;28;20424;-82
2020/12/26 03:01:15;;;;;;;7.17;1.63;;;22.30;85.10;;;;;;5070663;28;20441;-83
2020/12/26 03:03:42;;;;;;;10.83;1.80;;;22.30;84.80;;;;;;5069884;28;20410;-83
2020/12/26 03:06:12;;;;;;;9.20;1.60;;;22.30;85.40;;;;;;5051799;28;20388;-83
2020/12/26 03:08:39;;;;;;;9.70;1.30;;;22.30;86.80;;;;;;5051438;28;21197;-82
2020/12/26 03:11:06;;;;;;;5.55;1.20;;;22.20;87.30;;;;;;5070439;28;20453;-83
2020/12/26 03:13:33;;;;;;;7.90;1.20;;;22.10;84.90;;;;;;5070308;28;20378;-82
2020/12/26 03:16:00;;;;;;;9.45;1.55;;;22.10;86.20;;;;;;5072293;28;20401;-82
2020/12/26 03:18:27;;;;;;;6.63;1.60;;;22.10;85.70;;;;;;5080585;28;20378;-83
2020/12/26 03:20:54;;;;;;;5.93;1.23;;;22.10;83.60;;;;;;5068675;28;20432;-83
2020/12/26 03:23:21;;;;;;;7.83;1.60;;;21.80;84.60;;;;;;5069942;28;20885;-82
2020/12/26 03:25:48;;;;;;;5.83;1.50;;;21.80;87.10;;;;;;5070187;28;20409;-82
2020/12/26 03:28:15;;;;;;;10.20;1.70;;;22.00;87.20;;;;;;5065612;28;20385;-82
2020/12/26 03:30:42;;;;;;;8.43;1.75;;;21.80;85.60;;;;;;5050158;28;20371;-82
2020/12/26 03:33:09;;;;;;;6.90;1.58;;;21.80;87.20;;;;;;5050076;28;20455;-82
2020/12/26 03:35:36;;;;;;;8.15;1.67;;;21.60;85.90;;;;;;5064664;28;20374;-82
2020/12/26 03:38:04;;;;;;;6.05;1.40;;;21.70;86.70;;;;;;5069505;28;20390;-82
2020/12/26 03:40:31;;;;;;;8.15;1.63;;;21.70;87.60;;;;;;5069920;28;20903;-83
2020/12/26 03:42:58;;;;;;;7.03;2.03;;;21.90;90.00;;;;;;5069979;28;20489;-82
2020/12/26 03:45:25;;;;;;;6.95;1.45;;;22.00;86.10;;;;;;5070034;28;20741;-84
2020/12/26 03:47:52;;;;;;;7.30;1.52;;;22.20;84.80;;;;;;5070149;28;20409;-83
2020/12/26 03:50:19;;;;;;;7.53;1.43;;;22.20;83.10;;;;;;5070005;28;20835;-82
2020/12/26 03:52:46;;;;;;;8.07;1.30;;;22.40;84.10;;;;;;5069883;28;20771;-83
2020/12/26 03:55:13;;;;;;;8.70;1.30;;;22.50;84.00;;;;;;5069749;28;20374;-83
2020/12/26 03:57:40;;;;;;;8.37;1.47;;;22.20;83.10;;;;;;5068997;28;20469;-82
2020/12/26 04:00:07;;;;;;;6.87;1.33;;;22.00;83.10;;;;;;5068935;28;20389;-83
2020/12/26 04:02:34;;;;;;;9.65;1.67;;;22.00;84.30;;;;;;5069371;28;20381;-84
2020/12/26 04:05:01;;;;;;;8.15;1.40;;;22.10;84.60;;;;;;5069816;28;20491;-81
2020/12/26 04:07:29;;;;;;;6.40;1.50;;;22.20;82.10;;;;;;5067208;28;20882;-82
2020/12/26 04:09:55;;;;;;;10.88;1.75;;;22.00;85.60;;;;;;5062970;28;20433;-81
2020/12/26 04:12:22;;;;;;;8.50;1.77;;;21.90;84.70;;;;;;5068577;28;20390;-81
2020/12/26 04:14:49;;;;;;;8.50;1.98;;;21.80;86.70;;;;;;5069524;28;20374;-82
2020/12/26 04:17:16;;;;;;;7.70;1.73;;;21.80;87.30;;;;;;5063247;28;20425;-82
2020/12/26 04:19:43;;;;;;;7.65;1.90;;;21.90;85.50;;;;;;5065747;28;20899;-84
2020/12/26 04:22:10;;;;;;;4.78;1.45;;;21.90;84.10;;;;;;5068912;28;20880;-82
2020/12/26 04:24:37;;;;;;;7.10;1.30;;;22.00;84.60;;;;;;5068744;28;20489;-85
2020/12/26 04:27:04;;;;;;;4.82;1.30;;;22.00;84.00;;;;;;5069167;28;20437;-83
2020/12/26 04:29:31;;;;;;;7.63;1.55;;;22.00;83.00;;;;;;5069167;28;20423;-84
2020/12/26 04:31:58;;;;;;;6.13;1.30;;;22.10;83.40;;;;;;5069286;28;20370;-83
2020/12/26 04:34:25;;;;;;;5.22;1.23;;;21.90;82.90;;;;;;5069277;28;20354;-83
2020/12/26 04:36:52;;;;;;;9.15;1.90;;;21.80;83.60;;;;;;5068894;28;20719;-83
2020/12/26 04:39:23;;;;;;;10.65;1.65;;;21.80;84.70;;;;;;5068394;28;20477;-84
2020/12/26 04:41:50;;;;;;;8.70;1.45;;;22.00;84.50;;;;;;5069051;28;20451;-82
2020/12/26 04:44:17;;;;;;;8.40;1.65;;;22.30;83.60;;;;;;5069050;28;20405;-84
2020/12/26 04:46:46;;;;;;;7.97;1.60;;;22.40;83.50;;;;;;5069874;28;20891;-83
2020/12/26 04:49:17;;;;;;;7.75;1.42;;;22.40;83.10;;;;;;5069021;28;20405;-83
2020/12/26 04:51:44;;;;;;;6.22;1.58;;;22.30;83.00;;;;;;5069008;28;20382;-84
2020/12/26 04:54:25;;;;;;;7.88;1.60;;;22.00;82.80;;;;;;5069050;28;20779;-85
2020/12/26 04:56:56;;;;;;;6.60;1.40;;;21.80;84.40;;;;;;5069375;28;20382;-84
2020/12/26 04:59:24;;;;;;;7.22;1.38;;;22.00;84.00;;;;;;5069160;28;20366;-84
2020/12/26 05:01:52;;;;;;;8.95;1.58;;;22.20;83.00;;;;;;5069233;28;20378;-84
2020/12/26 05:04:20;;;;;;;6.15;1.30;;;22.30;82.90;;;;;;5068976;28;20447;-85
2020/12/26 05:06:53;;;;;;;6.03;1.38;;;22.40;82.10;;;;;;5070441;28;20382;-83
2020/12/26 05:09:22;;;;;;;6.27;1.50;;;22.50;82.30;;;;;;5074113;28;20405;-83
2020/12/26 05:12:00;;;;;;;5.57;1.42;;;22.40;80.80;;;;;;5055074;28;20378;-84
2020/12/26 05:14:30;;;;;;;6.70;1.27;;;22.30;81.90;;;;;;5073013;28;20374;-85
2020/12/26 05:16:58;;;;;;;8.35;1.50;;;22.40;81.80;;;;;;5073318;28;20888;-84
2020/12/26 05:19:25;;;;;;;5.75;1.25;;;22.10;81.10;;;;;;5072776;28;20370;-84
2020/12/26 05:21:56;;;;;;;7.00;1.58;;;21.90;82.90;;;;;;5072859;28;20469;-85
2020/12/26 05:24:23;;;;;;;6.30;1.53;;;21.60;83.50;;;;;;5072359;28;20401;-84
2020/12/26 05:26:52;;;;;;;6.65;1.70;;;21.40;83.40;;;;;;5072525;28;20410;-84
2020/12/26 05:29:24;;;;;;;8.48;1.52;;;21.40;85.40;;;;;;5067202;28;20387;-85
2020/12/26 05:31:57;;;;;;;7.78;1.33;;;21.30;84.40;;;;;;5056976;28;20419;-86
2020/12/26 05:34:34;;;;;;;6.95;1.30;;;21.20;84.70;;;;;;5068134;28;20399;-84
2020/12/26 05:37:03;;;;;;;6.60;1.40;;;21.10;84.70;;;;;;5065569;28;20402;-85
2020/12/26 05:39:38;;;;;;;6.78;1.40;;;21.10;84.70;;;;;;5072270;28;20934;-83
2020/12/26 05:42:06;;;;;;;6.20;1.08;;;21.00;85.50;;;;;;5072455;28;21061;-85
2020/12/26 05:44:36;;;;;;;6.60;1.58;;;21.00;86.00;;;;;;5072311;28;20652;-84
2020/12/26 05:47:05;;;;;;;7.40;1.70;;;20.90;85.30;;;;;;5072772;28;20378;-84
2020/12/26 05:49:33;;;;;;;5.03;1.35;;;20.80;86.10;;;;;;5071364;28;20394;-83
2020/12/26 05:52:11;;;;;;;5.83;1.40;;;20.80;87.20;;;;;;5070268;28;20389;-83
2020/12/26 05:54:48;;;;;;;7.85;1.48;;;20.70;87.50;;;;;;5062059;28;20370;-83
2020/12/26 05:57:17;;;;;;;6.25;1.58;;;20.70;87.50;;;;;;5072311;28;20905;-83
2020/12/26 05:59:57;;;;;;;5.50;1.40;;;20.50;88.00;;;;;;5055470;28;20379;-84
2020/12/26 06:02:29;;;;;;;7.70;1.20;;;20.40;89.00;;;;;;5053311;28;20384;-84
2020/12/26 06:05:04;;;;;;;7.53;1.70;;;20.40;89.60;;;;;;5051924;28;20438;-83
2020/12/26 06:07:40;;;;;;;9.27;1.83;;;20.30;88.00;;;;;;5051882;28;20458;-84
2020/12/26 06:10:08;;;;;;;8.30;1.50;;;20.30;88.70;;;;;;5053850;28;20390;-84
2020/12/26 06:12:36;;;;;;;8.10;1.30;;;20.20;89.40;;;;;;5053273;28;20765;-83
2020/12/26 06:15:04;;;;;;;8.48;1.52;;;20.10;89.40;;;;;;5052130;28;20894;-84
2020/12/26 06:17:33;;;;;;;8.38;1.30;;;20.10;89.90;;;;;;5057413;28;20440;-82
2020/12/26 06:20:06;;;;;;;8.40;1.85;;;20.10;89.70;;;;;;5072197;28;20410;-84
2020/12/26 06:22:47;;;;;;;7.63;1.50;;;20.10;90.30;;;;;;5070547;28;20394;-83
2020/12/26 06:25:20;;;;;;;7.88;1.67;;;20.00;90.40;;;;;;5066484;28;20402;-83
2020/12/26 06:27:53;;;;;;;7.63;1.70;;;20.00;89.60;;;;;;5070019;28;20386;-83
2020/12/26 06:30:21;;;;;;;8.10;1.67;;;20.00;90.10;;;;;;5071516;28;20439;-83
2020/12/26 06:32:50;;;;;;;9.03;1.63;;;19.90;90.10;;;;;;5070148;28;20390;-81
2020/12/26 06:35:21;;;;;;;7.35;1.60;;;19.90;90.40;;;;;;5062045;28;20406;-82
2020/12/26 06:38:09;;;;;;;8.43;1.57;;;19.90;90.30;;;;;;5070533;28;20730;-82
2020/12/26 06:40:36;;;;;;;7.83;1.63;;;19.80;90.70;;;;;;5083417;28;20386;-82
2020/12/26 06:43:03;;;;;;;9.52;1.80;;;19.60;92.00;;;;;;5071030;28;20410;-82
2020/12/26 06:45:34;;;;;;;12.55;2.05;;;19.50;92.90;;;;;;5071166;28;20377;-81
2020/12/26 06:48:03;;;;;;;8.85;1.60;;;19.20;92.90;;;;;;5071469;28;20768;-81
2020/12/26 06:50:32;;;;;;;13.02;2.03;;;18.90;94.60;;;;;;5077102;28;20916;-80
2020/12/26 06:53:00;;;;;;;14.82;2.25;;;18.70;96.10;;;;;;5081506;28;20461;-81
2020/12/26 06:55:41;;;;;;;10.45;1.70;;;18.50;95.80;;;;;;5060273;28;20687;-81
2020/12/26 06:58:08;;;;;;;11.48;1.95;;;18.30;96.60;;;;;;5061342;28;20487;-81
2020/12/26 07:00:36;;;;;;;11.60;2.08;;;18.20;97.00;;;;;;5069202;28;20392;-81
2020/12/26 07:03:24;;;;;;;10.18;1.63;;;18.10;97.90;;;;;;5052856;28;20891;-81
2020/12/26 07:05:53;;;;;;;8.13;1.77;;;18.00;97.90;;;;;;5067291;28;20402;-81
2020/12/26 07:08:25;;;;;;;11.15;1.92;;;18.00;97.90;;;;;;5050743;28;20355;-81
2020/12/26 07:10:53;;;;;;;19.90;2.13;;;17.90;98.10;;;;;;5056675;28;20429;-81
2020/12/26 07:13:55;;;;;;;10.63;1.90;;;17.90;98.50;;;;;;5053991;28;20395;-80
2020/12/26 07:16:38;;;;;;;9.70;1.90;;;18.00;98.70;;;;;;5002987;28;20479;-81
2020/12/26 07:19:24;;;;;;;8.60;1.90;;;18.10;99.00;;;;;;5054252;28;20395;-81
2020/12/26 07:21:54;;;;;;;13.43;2.20;;;18.00;99.10;;;;;;5067189;28;20389;-79
2020/12/26 07:24:26;;;;;;;11.15;1.70;;;18.00;99.00;;;;;;5069966;28;20418;-80
2020/12/26 07:26:53;;;;;;;9.82;1.83;;;18.10;99.00;;;;;;5052645;28;20419;-80
2020/12/26 07:29:26;;;;;;;8.15;1.90;;;18.10;99.00;;;;;;5045396;28;20418;-81
2020/12/26 07:31:54;;;;;;;13.05;2.00;;;18.10;98.80;;;;;;5067432;28;20392;-82
2020/12/26 07:34:38;;;;;;;10.40;2.05;;;18.20;98.50;;;;;;5069917;28;20394;-82
2020/12/26 07:37:05;;;;;;;6.38;1.85;;;18.20;98.30;;;;;;5076116;28;20756;-83
2020/12/26 07:39:33;;;;;;;10.05;2.03;;;18.20;97.60;;;;;;5069290;28;20523;-84
2020/12/26 07:42:00;;;;;;;6.20;1.48;;;18.20;98.20;;;;;;5069787;28;20752;-83
2020/12/26 07:44:29;;;;;;;6.95;1.52;;;18.20;98.20;;;;;;5069223;28;20410;-84
2020/12/26 07:46:57;;;;;;;7.22;1.63;;;18.20;98.30;;;;;;5068865;28;20386;-84
2020/12/26 07:49:24;;;;;;;8.30;1.85;;;18.10;97.40;;;;;;5069128;28;20406;-84
2020/12/26 07:52:05;;;;;;;9.60;2.15;;;18.20;96.70;;;;;;5058568;28;20394;-84
2020/12/26 07:54:32;;;;;;;6.93;1.53;;;18.20;97.80;;;;;;5065760;28;20530;-84
2020/12/26 07:57:00;;;;;;;7.68;1.85;;;18.20;96.70;;;;;;5068210;28;20435;-83
2020/12/26 07:59:27;;;;;;;9.30;1.60;;;18.20;96.50;;;;;;5066618;28;20407;-84
2020/12/26 08:01:56;;;;;;;9.05;1.80;;;18.10;96.90;;;;;;5067251;28;20405;-84
2020/12/26 08:04:23;;;;;;;10.00;1.70;;;18.10;97.00;;;;;;5069109;28;20406;-85
2020/12/26 08:06:51;;;;;;;8.65;1.88;;;18.10;96.80;;;;;;5069477;28;20367;-84
2020/12/26 08:09:19;;;;;;;10.55;2.20;;;18.20;97.00;;;;;;5059240;28;20405;-84
2020/12/26 08:11:46;;;;;;;9.40;2.05;;;18.20;96.90;;;;;;5066642;28;20443;-84
2020/12/26 08:14:18;;;;;;;7.47;1.90;;;18.20;97.00;;;;;;5068670;28;20522;-84
2020/12/26 08:16:46;;;;;;;8.63;1.70;;;18.20;97.10;;;;;;5068609;28;20408;-84
2020/12/26 08:19:18;;;;;;;13.23;2.25;;;18.30;96.40;;;;;;5053697;28;20882;-84
2020/12/26 08:21:46;;;;;;;8.40;1.80;;;18.30;96.90;;;;;;5049219;28;20375;-85
2020/12/26 08:24:13;;;;;;;8.82;1.45;;;18.30;96.40;;;;;;5060799;28;20437;-84
2020/12/26 08:26:43;;;;;;;9.43;1.60;;;18.30;97.00;;;;;;5069538;28;21183;-84
2020/12/26 08:29:11;;;;;;;11.98;1.90;;;18.20;97.00;;;;;;5070804;28;20395;-84
2020/12/26 08:31:38;;;;;;;7.57;1.67;;;18.30;97.30;;;;;;5069478;28;20949;-85
2020/12/26 08:34:20;;;;;;;10.10;1.77;;;18.20;97.40;;;;;;5062562;28;20457;-85
2020/12/26 08:37:20;;;;;;;6.95;1.90;;;18.20;97.20;;;;;;5049066;28;20388;-84
2020/12/26 08:39:53;;;;;;;13.38;2.30;;;18.30;97.00;;;;;;5054985;28;20401;-86
2020/12/26 08:42:21;;;;;;;9.05;1.90;;;18.30;97.30;;;;;;5064387;28;20377;-86
2020/12/26 08:44:48;;;;;;;8.50;1.58;;;18.20;97.20;;;;;;5063819;28;20863;-85
2020/12/26 08:47:29;;;;;;;10.67;1.80;;;18.30;97.10;;;;;;5069764;28;20448;-85
2020/12/26 08:49:57;;;;;;;10.85;1.90;;;18.20;97.10;;;;;;5058939;28;20405;-84
2020/12/26 08:52:28;;;;;;;8.57;1.73;;;18.30;96.90;;;;;;5063031;28;20388;-85
2020/12/26 08:55:05;;;;;;;9.15;1.77;;;18.30;96.40;;;;;;5065030;28;20393;-83
2020/12/26 08:57:33;;;;;;;6.93;1.70;;;18.30;96.50;;;;;;5057359;28;20385;-82
2020/12/26 09:00:19;;;;;;;7.05;1.52;;;18.40;96.60;;;;;;5049018;28;20870;-82
2020/12/26 09:02:51;;;;;;;11.45;1.50;;;18.40;96.00;;;;;;5065839;28;20378;-82
2020/12/26 09:05:27;;;;;;;10.32;1.70;;;18.40;96.20;;;;;;5063731;28;20876;-82
2020/12/26 09:08:06;;;;;;;8.60;1.67;;;18.40;96.00;;;;;;5065555;28;20463;-81
2020/12/26 09:10:34;;;;;;;5.90;1.30;;;18.40;96.20;;;;;;5063815;28;20386;-82
2020/12/26 09:13:02;;;;;;;9.77;1.85;;;18.30;96.40;;;;;;5065068;28;20849;-82
2020/12/26 09:15:52;;;;;;;12.13;1.83;;;18.20;96.80;;;;;;5064292;28;20446;-82
2020/12/26 09:18:21;;;;;;;8.73;1.98;;;18.20;97.70;;;;;;5066310;28;20864;-81
2020/12/26 09:21:08;;;;;;;10.90;1.70;;;18.10;97.70;;;;;;5061657;28;20490;-83
2020/12/26 09:23:39;;;;;;;13.23;1.83;;;17.90;98.00;;;;;;5067241;28;20447;-83
2020/12/26 09:26:19;;;;;;;11.40;2.10;;;17.80;98.50;;;;;;5062332;28;20455;-83
2020/12/26 09:28:54;;;;;;;9.90;1.83;;;17.70;99.10;;;;;;5057733;28;20373;-83
2020/12/26 09:31:30;;;;;;;9.80;2.30;;;17.50;99.50;;;;;;5065831;28;20378;-81
2020/12/26 09:34:01;;;;;;;7.25;1.65;;;17.40;99.90;;;;;;5064320;28;20366;-83
2020/12/26 09:36:28;;;;;;;11.70;2.17;;;17.30;99.90;;;;;;5065424;28;20382;-82
2020/12/26 09:38:56;;;;;;;7.15;2.00;;;17.30;99.90;;;;;;5065585;28;20394;-82
2020/12/26 09:41:24;;;;;;;12.20;2.03;;;17.20;99.90;;;;;;5064370;28;20374;-83
2020/12/26 09:43:56;;;;;;;10.95;2.20;;;17.10;99.90;;;;;;5063556;28;20421;-82
2020/12/26 09:46:24;;;;;;;7.30;1.55;;;17.00;99.90;;;;;;5065166;28;20389;-81
2020/12/26 09:48:52;;;;;;;10.02;2.10;;;16.90;99.90;;;;;;5057674;28;20406;-83
2020/12/26 09:51:21;;;;;;;9.18;2.33;;;16.90;99.90;;;;;;5062526;28;20477;-81
2020/12/26 09:53:48;;;;;;;6.97;2.00;;;16.90;99.90;;;;;;5062496;28;20473;-82
2020/12/26 09:56:15;;;;;;;11.63;2.38;;;16.90;99.90;;;;;;5063738;28;20393;-81
2020/12/26 09:58:44;;;;;;;6.95;2.10;;;16.80;99.90;;;;;;5068000;28;20426;-81
2020/12/26 10:01:16;;;;;;;9.93;2.00;;;16.80;99.90;;;;;;5062570;28;20397;-80
2020/12/26 10:03:45;;;;;;;10.10;2.00;;;16.80;99.90;;;;;;5063182;28;20401;-82
2020/12/26 10:06:13;;;;;;;10.85;1.88;;;16.80;99.90;;;;;;5062760;28;20892;-82
2020/12/26 10:08:42;;;;;;;13.55;2.22;;;16.80;99.90;;;;;;5067608;28;20885;-82
2020/12/26 10:11:14;;;;;;;17.43;2.70;;;16.80;99.90;;;;;;5071507;28;20398;-80
2020/12/26 10:13:42;;;;;;;9.33;1.90;;;16.80;99.90;;;;;;5064220;28;20398;-80
2020/12/26 10:16:10;;;;;;;17.13;2.53;;;16.80;99.90;;;;;;5061016;28;20931;-81
2020/12/26 10:18:37;;;;;;;11.73;2.05;;;16.80;99.90;;;;;;5057082;28;20366;-81
2020/12/26 10:21:04;;;;;;;11.68;2.47;;;16.90;99.90;;;;;;5064678;28;20412;-81
2020/12/26 10:23:31;;;;;;;10.98;1.83;;;16.90;99.90;;;;;;5057094;28;20473;-82
2020/12/26 10:26:06;;;;;;;12.32;2.28;;;16.90;99.90;;;;;;5050591;28;20402;-82
2020/12/26 10:28:34;;;;;;;12.55;2.30;;;16.90;99.90;;;;;;5053039;28;20926;-82
2020/12/26 10:31:04;;;;;;;9.60;2.00;;;17.10;99.90;;;;;;5068341;28;20402;-83
2020/12/26 10:33:34;;;;;;;13.52;2.03;;;17.20;99.90;;;;;;5067230;28;20393;-81
2020/12/26 10:36:02;;;;;;;11.98;1.85;;;17.20;99.90;;;;;;5054503;28;20383;-82
2020/12/26 10:38:32;;;;;;;13.68;2.22;;;17.30;99.90;;;;;;5060742;28;20408;-82
2020/12/26 10:41:08;;;;;;;13.53;2.20;;;17.30;99.90;;;;;;5056269;28;20429;-84
2020/12/26 10:43:39;;;;;;;14.53;3.07;;;17.30;99.90;;;;;;5058005;28;20426;-82
2020/12/26 10:46:06;;;;;;;14.60;2.97;;;17.20;99.90;;;;;;5059730;28;20386;-81
2020/12/26 10:48:50;;;;;;;12.48;2.65;;;17.10;99.90;;;;;;5066027;28;20405;-80
2020/12/26 10:51:17;;;;;;;20.97;2.90;;;17.00;99.90;;;;;;5064940;28;20491;-80
2020/12/26 10:53:45;;;;;;;13.18;2.17;;;17.00;99.90;;;;;;5055588;28;20389;-81
2020/12/26 10:56:12;;;;;;;12.85;2.40;;;17.00;99.90;;;;;;5065466;28;20876;-80
2020/12/26 10:58:39;;;;;;;13.23;2.58;;;17.00;99.90;;;;;;5066878;28;20401;-82
2020/12/26 11:01:06;;;;;;;12.27;2.30;;;17.00;99.90;;;;;;5067428;28;20374;-81
2020/12/26 11:03:36;;;;;;;12.48;2.80;;;17.00;99.90;;;;;;5061785;28;20418;-82
2020/12/26 11:06:03;;;;;;;18.35;2.88;;;16.90;99.90;;;;;;5061609;28;20394;-81
2020/12/26 11:08:31;;;;;;;14.93;2.80;;;16.90;99.90;;;;;;5061274;28;20403;-81
2020/12/26 11:10:58;;;;;;;15.23;2.67;;;16.90;99.90;;;;;;5051455;28;20949;-81
2020/12/26 11:13:25;;;;;;;17.35;2.88;;;16.90;99.90;;;;;;5054874;28;20401;-81
2020/12/26 11:15:52;;;;;;;13.65;2.75;;;16.90;99.90;;;;;;5067516;28;20378;-81
2020/12/26 11:18:19;;;;;;;14.57;2.38;;;16.90;99.90;;;;;;5061750;28;20885;-82
2020/12/26 11:20:47;;;;;;;15.30;2.60;;;16.90;99.90;;;;;;5063244;28;20398;-82
2020/12/26 11:23:19;;;;;;;23.38;2.70;;;17.00;99.90;;;;;;5056150;28;20494;-81
2020/12/26 11:25:51;;;;;;;14.07;2.47;;;17.00;99.90;;;;;;5066167;28;20487;-82
2020/12/26 11:28:18;;;;;;;16.85;2.47;;;16.90;99.90;;;;;;5066069;28;20397;-81
2020/12/26 11:30:45;;;;;;;18.05;2.75;;;16.90;99.90;;;;;;5066946;28;20386;-81
2020/12/26 11:33:15;;;;;;;14.18;2.53;;;16.90;99.90;;;;;;5066217;28;20413;-82
2020/12/26 11:35:43;;;;;;;13.15;2.60;;;16.90;99.90;;;;;;5066953;28;20453;-83
2020/12/26 11:38:12;;;;;;;14.90;2.42;;;16.90;99.90;;;;;;5065838;28;20401;-81
2020/12/26 11:40:39;;;;;;;16.70;3.00;;;16.90;99.90;;;;;;5064143;28;20398;-82
2020/12/26 11:43:09;;;;;;;14.00;2.50;;;16.90;99.90;;;;;;5065655;28;20402;-83
2020/12/26 11:45:39;;;;;;;13.55;2.65;;;17.00;99.90;;;;;;5064733;28;20907;-82
2020/12/26 11:48:18;;;;;;;14.77;2.17;;;16.90;99.90;;;;;;5048913;28;20469;-82
2020/12/26 11:50:49;;;;;;;17.10;2.83;;;16.90;99.90;;;;;;5061476;28;20382;-81
2020/12/26 11:53:16;;;;;;;12.75;2.60;;;17.00;99.90;;;;;;5063731;28;20916;-82
2020/12/26 11:55:43;;;;;;;13.63;2.80;;;17.00;99.90;;;;;;5056781;28;20728;-83
2020/12/26 11:58:13;;;;;;;14.95;3.10;;;17.00;99.90;;;;;;5031657;28;20404;-82
2020/12/26 12:00:40;;;;;;;15.82;3.47;;;17.00;99.90;;;;;;5066325;28;20381;-83
2020/12/26 12:03:10;;;;;;;13.30;3.30;;;17.00;99.90;;;;;;5065327;28;20378;-81
2020/12/26 12:05:46;;;;;;;13.88;3.65;;;17.00;99.90;;;;;;5064112;28;20815;-82
2020/12/26 12:08:13;;;;;;;16.13;3.80;;;16.90;99.90;;;;;;5064436;28;20370;-81
2020/12/26 12:10:41;;;;;;;13.88;3.67;;;16.90;99.90;;;;;;5066377;28;20410;-81
2020/12/26 12:13:08;;;;;;;12.75;4.30;;;16.90;99.90;;;;;;5065172;28;20451;-81
2020/12/26 12:15:39;;;;;;;12.70;3.93;;;16.90;99.90;;;;;;5066992;28;20439;-81
2020/12/26 12:18:07;;;;;;;19.63;3.85;;;17.00;99.90;;;;;;5065290;28;20965;-81
2020/12/26 12:20:43;;;;;;;14.68;4.05;;;17.00;99.90;;;;;;5065625;28;20396;-81
2020/12/26 12:23:10;;;;;;;15.85;4.28;;;17.00;99.90;;;;;;5072072;28;20447;-81
2020/12/26 12:25:40;;;;;;;11.48;3.95;;;17.00;99.90;;;;;;5086644;28;20377;-81
2020/12/26 12:28:07;;;;;;;17.02;3.65;;;17.00;99.90;;;;;;5079194;28;20448;-81
2020/12/26 12:30:35;;;;;;;13.95;3.55;;;17.00;99.90;;;;;;5048450;28;20455;-81
2020/12/26 12:33:02;;;;;;;13.23;3.70;;;17.00;99.90;;;;;;5060761;28;20384;-81
2020/12/26 12:35:37;;;;;;;16.92;3.53;;;17.10;99.90;;;;;;5057276;28;20408;-82
2020/12/26 12:38:05;;;;;;;12.40;3.25;;;17.00;99.90;;;;;;5054841;28;20939;-81
2020/12/26 12:40:32;;;;;;;12.45;2.83;;;17.10;99.90;;;;;;5066557;28;20401;-81
2020/12/26 12:42:58;;;;;;;12.90;2.78;;;17.10;99.90;;;;;;5067018;28;20434;-81
2020/12/26 12:45:26;;;;;;;16.20;2.88;;;17.10;99.90;;;;;;5050242;28;20398;-81
2020/12/26 12:47:54;;;;;;;13.30;2.88;;;17.10;99.90;;;;;;5069213;28;20389;-80
2020/12/26 12:50:21;;;;;;;15.35;3.17;;;17.10;99.90;;;;;;5069054;28;20374;-80
2020/12/26 12:52:48;;;;;;;11.20;2.55;;;17.10;99.90;;;;;;5068657;28;20436;-81
2020/12/26 12:55:15;;;;;;;12.05;2.40;;;17.10;99.90;;;;;;5069094;28;20439;-80